Thursday, November 23, 2017, 1:33 PM EST
Back to Local

KLEB, Lebanon Municipal Airport

Location: Lebanon, NH, United States Lat: 43.633
Local Time: 1:33 PM EST (18:33 GMT) Lon: -72.3
Time Zone: US/Eastern Elev: 597 ft

Show me the last for .
Show Decoded

2017-11-23 12:53 METAR KLEB 231753Z 33003KT 10SM SCT120 01/M10 A2999 RMK AO2 SLP163 T00061100
                 10006 21050 56021 =
2017-11-23 11:53 METAR KLEB 231653Z 01007KT 10SM CLR 01/M10 A3001 RMK AO2 SLP169 T00061100 =
2017-11-23 10:53 METAR KLEB 231553Z 36007KT 10SM CLR 00/M09 A3003 RMK AO2 SLP178 T00001094 =
2017-11-23 09:53 METAR KLEB 231453Z 34008KT 10SM CLR M02/M10 A3005 RMK AO2 SLP186 T10171100 51000
                 =
2017-11-23 08:53 METAR KLEB 231353Z 00000KT 10SM CLR M03/M10 A3005 RMK AO2 SLP183 T10281100 =
2017-11-23 07:53 METAR KLEB 231253Z 35003KT 10SM CLR M04/M08 A3006 RMK AO2 SLP188 T10441083 =
2017-11-23 06:53 METAR KLEB 231153Z 01003KT 10SM CLR M05/M08 A3005 RMK AO2 SLP186 70008 T10501083
                 10000 21061 51008 =
2017-11-23 05:53 METAR KLEB 231053Z AUTO 00000KT 10SM CLR M04/M09 A3005 RMK AO2 SLP185 T10441094
                 =
2017-11-23 04:53 METAR KLEB 230953Z AUTO 32003KT 10SM CLR M03/M09 A3004 RMK AO2 SLP181 T10331089
                 =
2017-11-23 04:01 METAR KLEB 230901Z AUTO 36006KT 10SM SCT025 M03/M09 A3003 RMK AO2 T10281089 =
2017-11-23 03:53 METAR KLEB 230853Z AUTO 36009KT 10SM BKN025 M03/M08 A3003 RMK AO2 SLP176
                 T10281083 51012 =
2017-11-23 02:53 METAR KLEB 230753Z AUTO 35003KT 10SM BKN026 M02/M08 A3003 RMK AO2 SLP175
                 T10171078 =
2017-11-23 01:53 METAR KLEB 230653Z AUTO 33006G15KT 10SM FEW028 M01/M08 A3001 RMK AO2 SLP168
                 T10111078 =
2017-11-23 00:53 METAR KLEB 230553Z AUTO 34009KT 10SM OVC031 00/M07 A2999 RMK AO2 SLP163
                 T00001072 10033 20000 51009 =
2017-11-23 00:38 METAR KLEB 230538Z AUTO 34006KT 10SM OVC031 00/M07 A2999 RMK AO2 T00001067 =
2017-11-22 23:53 METAR KLEB 230453Z AUTO 34010G17KT 10SM OVC028 00/M06 A2999 RMK AO2 SLP163
                 T00001061 400391039 =
2017-11-22 22:53 METAR KLEB 230353Z AUTO 30007KT 10SM OVC029 01/M05 A2998 RMK AO2 SLP157
                 T00111050 =
2017-11-22 22:44 METAR KLEB 230344Z AUTO 33008KT 10SM OVC029 01/M05 A2997 RMK AO2 T00111050 =
2017-11-22 21:53 METAR KLEB 230253Z 34008G15KT 10SM OVC041 02/M05 A2997 RMK AO2 SLP155 T00171050
                 51010 =
2017-11-22 20:53 METAR KLEB 230153Z 36007KT 320V040 10SM OVC038 02/M04 A2996 RMK AO2 SLP152
                 T00221039 =
2017-11-22 19:53 METAR KLEB 230053Z 32005KT 10SM BKN032 OVC038 03/M02 A2995 RMK AO2 SLP150
                 T00281022 =
2017-11-22 19:43 METAR KLEB 230043Z 30007KT 280V340 10SM OVC030 03/M02 A2995 RMK AO2 T00281017 =
2017-11-22 18:53 METAR KLEB 222353Z 35009KT 10SM OVC023 03/M01 A2994 RMK AO2 SLP145 60003
                 T00281006 10039 20022 53011 =
2017-11-22 17:53 METAR KLEB 222253Z 34006KT 10SM BKN023 OVC029 03/00 A2992 RMK AO2 SLP140
                 T00280000 =
2017-11-22 17:39 METAR KLEB 222239Z 32004KT 10SM BKN027 OVC035 03/M01 A2991 RMK AO2 T00281006 =
2017-11-22 16:53 METAR KLEB 222153Z 31005KT 10SM SCT026 OVC031 03/00 A2992 RMK AO2 SLP139
                 T00330000 =
2017-11-22 16:22 METAR KLEB 222122Z 04005KT 10SM SCT018 BKN029 OVC045 03/01 A2991 RMK AO2
                 T00330006 =
2017-11-22 16:09 METAR KLEB 222109Z 36005KT 10SM FEW016 SCT021 OVC044 03/01 A2991 RMK AO2
                 T00330011 =
2017-11-22 15:53 METAR KLEB 222053Z 35004KT 10SM BKN019 OVC043 03/01 A2990 RMK AO2 SLP133 60003
                 T00330011 51013 =
2017-11-22 15:00 METAR KLEB 222000Z 33004KT 10SM BKN015 BKN033 OVC046 04/02 A2990 RMK AO2
                 T00390022 =
2017-11-22 14:53 METAR KLEB 221953Z 33005KT 10SM BKN013 BKN045 OVC055 04/02 A2990 RMK AO2 RAE38
                 SLP131 P0001 T00390022 =
2017-11-22 14:50 METAR KLEB 221950Z 33003KT 10SM BKN013 BKN035 OVC055 04/02 A2989 RMK AO2 RAE38
                 P0001 =
2017-11-22 14:37 METAR KLEB 221937Z 34006KT 10SM -RA SCT013 BKN033 OVC055 04/03 A2988 RMK AO2
                 P0001 T00390028 =
2017-11-22 14:08 METAR KLEB 221908Z VRB04KT 4SM -RA BR FEW005 OVC014 03/02 A2987 RMK AO2 P0001
                 T00330022 =
2017-11-22 13:53 METAR KLEB 221853Z 00000KT 4SM -RA BR BKN017 OVC034 03/02 A2987 RMK AO2
                 RAE1758B29UPB22E29 SLP120 P0002 T00330017 =

Support USWX by starting your Amazon purchase here.